Time;durP1;ratioP1;P1;durP2;ratioP2;P2;SDS_P1;SDS_P2;PMS_P1;PMS_P2;Temp;Humidity;BMP_temperature;BMP_pressure;BME280_temperature;BME280_humidity;BME280_pressure;Samples;Min_cycle;Max_cycle;Signal;HPM_P1;HPM_P2
2022/03/01 00:00:21;;;;;;;;;;;2.30;99.90;;;0.55;73.62;102524.31;2568958;30;137315;-39
2022/03/01 00:02:49;;;;;;;;;;;2.30;99.90;;;0.56;73.80;102523.34;2567836;30;138245;-40
2022/03/01 00:05:16;;;;;;;;;;;2.30;99.90;;;0.54;73.27;102514.53;2568299;30;136918;-40
2022/03/01 00:07:44;;;;;;;;;;;2.40;99.90;;;0.54;72.86;102522.59;2568526;30;138325;-40
2022/03/01 00:10:11;;;;;;;;;;;2.30;99.90;;;0.53;73.54;102520.84;2565414;30;137360;-40
2022/03/01 00:12:39;;;;;;;;;;;2.30;99.90;;;0.52;73.72;102516.44;2569414;30;138158;-40
2022/03/01 00:15:07;;;;;;;;;;;2.30;99.90;;;0.55;73.61;102519.78;2567818;30;137413;-39
2022/03/01 00:17:35;;;;;;;;;;;2.30;99.90;;;0.53;73.48;102515.47;2566929;30;137172;-40
2022/03/01 00:20:04;;;;;;;;;;;2.30;99.90;;;0.54;73.63;102514.53;2568483;30;137344;-39
2022/03/01 00:22:33;;;;;;;;;;;2.30;99.90;;;0.45;74.53;102523.19;2567784;30;138418;-39
2022/03/01 00:25:01;;;;;;;;;;;2.30;99.90;;;0.30;75.53;102520.59;2569649;30;136849;-39
2022/03/01 00:27:29;;;;;;;;;;;2.20;99.90;;;0.14;76.40;102510.88;2567957;30;138998;-39
2022/03/01 00:29:56;;;;;;;;;;;2.00;99.90;;;0.03;76.69;102512.53;2567611;30;137107;-42
2022/03/01 00:32:24;;;;;;;;;;;1.90;99.90;;;-0.05;76.91;102496.94;2565828;30;137879;-39
2022/03/01 00:34:51;;;;;;;;;;;1.80;99.90;;;-0.20;77.48;102497.00;2569269;30;137048;-42
2022/03/01 00:37:19;;;;;;;;;;;1.70;99.90;;;-0.32;78.31;102492.44;2568790;30;137085;-42
2022/03/01 00:39:46;;;;;;;;;;;1.60;99.90;;;-0.44;79.22;102491.41;2568197;30;137133;-42
2022/03/01 00:42:14;;;;;;;;;;;1.40;99.90;;;-0.50;80.11;102486.44;2568474;30;139129;-41
2022/03/01 00:44:41;;;;;;;;;;;1.40;99.90;;;-0.49;79.61;102497.09;2568235;30;136752;-42
2022/03/01 00:47:09;;;;;;;;;;;1.40;99.90;;;-0.42;80.42;102485.94;2567483;30;138152;-42
2022/03/01 00:49:36;;;;;;;;;;;1.40;99.90;;;-0.41;80.00;102485.84;2568406;30;137292;-42
2022/03/01 00:52:05;;;;;;;;;;;1.40;99.90;;;-0.44;80.65;102492.28;2567838;30;138256;-41
2022/03/01 00:54:32;;;;;;;;;;;1.40;99.90;;;-0.48;80.29;102492.56;2568290;30;137256;-41
2022/03/01 00:56:59;;;;;;;;;;;1.40;99.90;;;-0.47;80.23;102495.16;2568214;30;137946;-42
2022/03/01 01:00:13;;;;;;;;;;;1.40;99.90;;;-0.57;80.27;102488.66;2569314;30;138188;-40
2022/03/01 01:02:42;;;;;;;;;;;1.30;99.90;;;-0.61;80.80;102493.38;2569485;30;138969;-40
2022/03/01 01:05:09;;;;;;;;;;;1.20;99.90;;;-0.74;81.72;102495.97;2571140;30;137088;-40
2022/03/01 01:07:37;;;;;;;;;;;1.10;99.90;;;-0.84;82.75;102489.44;2567582;30;139163;-40
2022/03/01 01:10:09;;;;;;;;;;;1.00;99.90;;;-0.92;84.23;102497.09;2570392;30;137825;-40
2022/03/01 01:12:37;;;;;;;;;;;1.00;99.90;;;-1.02;84.57;102488.78;2568229;30;138929;-40
2022/03/01 01:15:11;;;;;;;;;;;0.90;99.90;;;-0.96;84.80;102482.19;2567441;30;137481;-40
2022/03/01 01:17:39;;;;;;;;;;;0.90;99.90;;;-0.93;84.98;102484.66;2570956;30;137997;-40
2022/03/01 01:20:08;;;;;;;;;;;0.90;99.90;;;-0.85;85.01;102481.50;2571291;30;136943;-40
2022/03/01 01:22:41;;;;;;;;;;;0.90;99.90;;;-0.74;85.39;102476.31;2570474;30;138209;-41
2022/03/01 01:25:13;;;;;;;;;;;1.00;99.90;;;-0.65;85.20;102472.19;2571291;30;137281;-40
2022/03/01 01:27:43;;;;;;;;;;;1.10;99.90;;;-0.53;84.85;102476.78;2570377;30;137268;-40
2022/03/01 01:30:13;;;;;;;;;;;1.20;99.90;;;-0.40;84.01;102475.97;2570723;30;137321;-41
2022/03/01 01:32:42;;;;;;;;;;;1.40;99.90;;;-0.32;83.60;102465.59;2568805;30;140286;-40
2022/03/01 01:35:12;;;;;;;;;;;1.50;99.90;;;-0.18;83.03;102484.34;2569890;30;137159;-40
2022/03/01 01:37:40;;;;;;;;;;;1.60;99.90;;;0.03;80.69;102486.59;2566680;30;138614;-40
2022/03/01 01:40:11;;;;;;;;;;;1.70;99.90;;;0.08;79.35;102473.72;2570535;30;137587;-40
2022/03/01 01:42:39;;;;;;;;;;;1.80;99.90;;;0.11;79.76;102484.25;2569585;30;138431;-40
2022/03/01 01:45:07;;;;;;;;;;;1.80;99.90;;;0.11;79.85;102478.88;2570025;30;137129;-40
2022/03/01 01:47:46;;;;;;;;;;;1.90;99.90;;;0.08;79.58;102478.19;2568188;30;139093;-42
2022/03/01 01:50:15;;;;;;;;;;;1.90;99.90;;;0.13;79.18;102468.88;2567898;30;137430;-40
2022/03/01 01:52:47;;;;;;;;;;;1.90;99.90;;;0.12;78.91;102474.34;2571617;30;138219;-40
2022/03/01 01:55:16;;;;;;;;;;;1.90;99.90;;;0.09;78.71;102470.06;2569230;30;137806;-41
2022/03/01 01:57:44;;;;;;;;;;;1.90;99.90;;;0.11;78.81;102473.50;2568670;30;138253;-42
2022/03/01 02:00:12;;;;;;;;;;;1.90;99.90;;;0.12;78.14;102461.81;2567387;30;137217;-40
2022/03/01 02:02:40;;;;;;;;;;;1.90;99.90;;;0.16;77.06;102465.16;2569836;30;138090;-40
2022/03/01 02:05:08;;;;;;;;;;;1.90;99.90;;;0.17;77.18;102466.00;2569200;30;137511;-41
2022/03/01 02:07:37;;;;;;;;;;;1.90;99.90;;;0.22;76.79;102458.47;2566970;30;138182;-40
2022/03/01 02:10:07;;;;;;;;;;;2.00;99.90;;;0.30;76.67;102457.97;2568937;30;136916;-40
2022/03/01 02:12:38;;;;;;;;;;;2.00;99.90;;;0.34;75.21;102468.41;2569496;30;138159;-40
2022/03/01 02:15:08;;;;;;;;;;;2.10;99.90;;;0.36;75.21;102469.16;2568909;30;137237;-40
2022/03/01 02:17:38;;;;;;;;;;;2.10;99.90;;;0.34;74.88;102468.41;2569436;30;138336;-40
2022/03/01 02:20:09;;;;;;;;;;;2.10;99.90;;;0.32;74.72;102462.28;2569788;30;137211;-41
2022/03/01 02:22:37;;;;;;;;;;;2.10;99.90;;;0.34;74.17;102471.09;2570386;30;138575;-45
2022/03/01 02:25:06;;;;;;;;;;;2.10;99.90;;;0.34;74.34;102478.28;2568969;30;137845;-40
2022/03/01 02:27:34;;;;;;;;;;;2.10;99.90;;;0.37;74.46;102473.56;2568128;30;138148;-40
2022/03/01 02:30:02;;;;;;;;;;;2.10;99.90;;;0.37;73.64;102478.94;2570868;30;138028;-43
2022/03/01 02:32:31;;;;;;;;;;;2.10;99.90;;;0.36;73.54;102471.84;2571050;30;136882;-40
2022/03/01 02:35:00;;;;;;;;;;;2.10;99.90;;;0.32;73.59;102469.47;2569997;30;137421;-41
2022/03/01 02:37:27;;;;;;;;;;;2.10;99.90;;;0.32;72.74;102473.03;2566899;30;138068;-40
2022/03/01 02:39:54;;;;;;;;;;;2.10;99.90;;;0.33;73.31;102472.06;2569833;30;137074;-40
2022/03/01 02:42:22;;;;;;;;;;;2.10;99.90;;;0.30;74.23;102469.59;2570751;30;138370;-40
2022/03/01 02:44:49;;;;;;;;;;;2.10;99.90;;;0.26;74.56;102470.72;2568274;30;137372;-40
2022/03/01 02:47:17;;;;;;;;;;;2.00;99.90;;;0.22;74.90;102461.16;2570077;30;138223;-40
2022/03/01 02:49:44;;;;;;;;;;;2.00;99.90;;;0.17;74.99;102464.19;2569250;30;137078;-41
2022/03/01 02:52:12;;;;;;;;;;;2.00;99.90;;;0.14;75.31;102461.72;2571281;30;137057;-43
2022/03/01 02:54:39;;;;;;;;;;;1.90;99.90;;;0.07;76.05;102450.53;2568870;30;136984;-40
2022/03/01 02:57:07;;;;;;;;;;;1.90;99.90;;;0.09;76.79;102443.22;2568861;30;137235;-40
2022/03/01 02:59:34;;;;;;;;;;;1.90;99.90;;;0.12;76.36;102443.00;2567649;30;137414;-41
2022/03/01 03:02:02;;;;;;;;;;;1.90;99.90;;;0.20;76.17;102447.88;2569855;30;139146;-41
2022/03/01 03:04:29;;;;;;;;;;;1.90;99.90;;;0.19;76.50;102443.47;2568654;30;137022;-40
2022/03/01 03:06:57;;;;;;;;;;;1.90;99.90;;;0.35;76.03;102443.28;2571645;30;138512;-40
2022/03/01 03:09:24;;;;;;;;;;;2.00;99.90;;;0.49;75.61;102442.31;2568722;30;137172;-40
2022/03/01 03:11:52;;;;;;;;;;;2.10;99.90;;;0.57;74.31;102450.69;2569420;30;138831;-40
2022/03/01 03:14:19;;;;;;;;;;;2.20;99.90;;;0.67;73.38;102448.22;2569334;30;137853;-40
2022/03/01 03:16:48;;;;;;;;;;;2.30;99.90;;;0.74;73.13;102442.41;2569704;30;138521;-40
2022/03/01 03:19:15;;;;;;;;;;;2.40;99.90;;;0.89;72.54;102440.47;2570282;30;136920;-42
2022/03/01 03:21:46;;;;;;;;;;;2.50;99.90;;;0.91;72.47;102442.09;2569366;30;138313;-40
2022/03/01 03:24:14;;;;;;;;;;;2.60;99.90;;;1.04;71.82;102441.22;2568724;30;137299;-40
2022/03/01 03:26:42;;;;;;;;;;;2.60;99.90;;;1.04;71.21;102447.44;2569520;30;137238;-40
2022/03/01 03:29:10;;;;;;;;;;;2.70;99.90;;;1.13;70.24;102445.94;2568968;30;137000;-40
2022/03/01 03:31:42;;;;;;;;;;;2.80;99.90;;;1.10;70.87;102448.84;2568385;30;139309;-40
2022/03/01 03:34:10;;;;;;;;;;;2.80;99.90;;;1.13;69.94;102440.56;2569658;30;138474;-41
2022/03/01 03:36:39;;;;;;;;;;;2.80;99.90;;;1.21;69.63;102445.41;2570755;30;138264;-40
2022/03/01 03:39:09;;;;;;;;;;;2.90;99.90;;;1.14;69.60;102434.22;2568981;30;137275;-41
2022/03/01 03:41:36;;;;;;;;;;;2.90;99.90;;;1.17;69.82;102452.81;2566178;30;138279;-40
2022/03/01 03:44:05;;;;;;;;;;;2.90;99.90;;;1.19;70.05;102440.13;2568755;30;137423;-40
2022/03/01 03:46:32;;;;;;;;;;;2.90;99.90;;;1.13;70.05;102449.47;2569725;30;138414;-40
2022/03/01 03:49:00;;;;;;;;;;;2.80;99.90;;;1.13;69.66;102437.88;2570203;30;137233;-40
2022/03/01 03:51:27;;;;;;;;;;;2.90;99.90;;;1.12;69.47;102428.09;2569352;30;138405;-41
2022/03/01 03:53:55;;;;;;;;;;;2.90;99.90;;;1.03;70.04;102412.59;2566836;30;137235;-40
2022/03/01 03:56:23;;;;;;;;;;;2.90;99.90;;;1.15;70.03;102426.03;2569791;30;138392;-40
2022/03/01 03:58:50;;;;;;;;;;;2.90;99.90;;;1.09;69.26;102404.13;2571376;30;138189;-40
2022/03/01 04:01:18;;;;;;;;;;;2.90;99.90;;;1.17;69.45;102427.75;2570890;30;137202;-41
2022/03/01 04:03:45;;;;;;;;;;;2.90;99.90;;;1.12;68.90;102420.88;2570183;30;137345;-42
2022/03/01 04:06:13;;;;;;;;;;;2.90;99.90;;;1.05;69.27;102416.03;2570083;30;138172;-40
2022/03/01 04:08:41;;;;;;;;;;;2.80;99.90;;;1.07;69.75;102435.63;2568931;30;136645;-41
2022/03/01 04:11:08;;;;;;;;;;;2.80;99.90;;;1.14;69.39;102434.22;2569395;30;138227;-40
2022/03/01 04:13:36;;;;;;;;;;;2.80;99.90;;;1.16;68.18;102432.28;2570293;30;138075;-42
2022/03/01 04:16:03;;;;;;;;;;;2.80;99.90;;;1.15;68.58;102444.00;2570401;30;139068;-40
2022/03/01 04:18:31;;;;;;;;;;;2.90;99.90;;;1.08;69.46;102432.81;2569555;30;136928;-40
2022/03/01 04:20:58;;;;;;;;;;;2.80;99.90;;;1.21;68.12;102427.41;2570093;30;138325;-45
2022/03/01 04:23:27;;;;;;;;;;;2.80;99.90;;;1.29;67.77;102433.09;2570047;30;136941;-40
2022/03/01 04:25:55;;;;;;;;;;;3.00;99.90;;;1.29;67.56;102427.72;2571790;30;138443;-40
2022/03/01 04:28:23;;;;;;;;;;;3.00;99.90;;;1.45;66.78;102431.97;2568273;30;137569;-40
2022/03/01 04:30:51;;;;;;;;;;;3.00;99.90;;;1.32;67.05;102439.22;2569839;30;138348;-40
2022/03/01 04:33:18;;;;;;;;;;;3.00;99.90;;;1.29;66.44;102432.25;2567493;30;137282;-41
2022/03/01 04:35:46;;;;;;;;;;;3.00;99.90;;;1.32;66.34;102437.41;2571923;30;138291;-40
2022/03/01 04:38:13;;;;;;;;;;;3.00;99.90;;;1.32;66.94;102437.41;2570543;30;138491;-40
2022/03/01 04:40:41;;;;;;;;;;;3.00;99.90;;;1.32;67.19;102431.13;2568077;30;138633;-40
2022/03/01 04:43:08;;;;;;;;;;;3.00;99.90;;;1.37;66.78;102435.22;2571644;30;137246;-40
2022/03/01 04:45:36;;;;;;;;;;;3.00;99.90;;;1.32;66.58;102432.00;2569707;30;138818;-41
2022/03/01 04:48:03;;;;;;;;;;;3.00;99.90;;;1.29;66.91;102434.94;2567993;30;137117;-40
2022/03/01 04:50:31;;;;;;;;;;;3.00;99.90;;;1.38;66.85;102434.25;2570635;30;138237;-40
2022/03/01 04:52:59;;;;;;;;;;;3.00;99.90;;;1.43;66.72;102433.91;2568852;30;136563;-40
2022/03/01 04:55:27;;;;;;;;;;;3.00;99.90;;;1.42;66.70;102435.75;2569232;30;138614;-40
2022/03/01 04:57:54;;;;;;;;;;;3.10;99.90;;;1.35;67.30;102439.00;2568949;30;136985;-40
2022/03/01 05:00:22;;;;;;;;;;;3.00;99.90;;;1.38;67.18;102430.72;2568529;30;137622;-44
2022/03/01 05:02:49;;;;;;;;;;;3.00;99.90;;;1.39;66.70;102427.91;2568546;30;137998;-40
2022/03/01 05:05:17;;;;;;;;;;;3.10;99.90;;;1.37;65.62;102408.31;2569369;30;137694;-40
2022/03/01 05:07:47;;;;;;;;;;;3.20;99.90;;;1.66;65.19;102434.91;2569707;30;137220;-42
2022/03/01 05:10:20;;;;;;;;;;;3.30;99.90;;;1.65;66.09;102433.19;2570132;30;139989;-40
2022/03/01 05:12:55;;;;;;;;;;;3.30;99.90;;;1.74;65.27;102436.19;2571153;30;137241;-40
2022/03/01 05:15:24;;;;;;;;;;;3.30;99.90;;;1.70;65.34;102435.53;2568880;30;138423;-40
2022/03/01 05:17:52;;;;;;;;;;;3.40;99.90;;;1.66;65.86;102432.22;2569869;30;137828;-40
2022/03/01 05:20:21;;;;;;;;;;;3.30;99.90;;;1.75;64.67;102436.06;2573703;30;138347;-40
2022/03/01 05:22:49;;;;;;;;;;;3.40;99.90;;;1.82;64.72;102444.53;2570792;30;137240;-41
2022/03/01 05:25:20;;;;;;;;;;;3.40;99.90;;;1.85;65.92;102449.69;2569778;30;138497;-40
2022/03/01 05:27:50;;;;;;;;;;;3.50;99.90;;;1.83;64.59;102457.84;2569053;30;137162;-40
2022/03/01 05:30:20;;;;;;;;;;;3.50;99.90;;;1.88;63.93;102459.38;2568291;30;138354;-40
2022/03/01 05:32:50;;;;;;;;;;;3.50;99.90;;;1.80;64.88;102446.47;2569839;30;137155;-41
2022/03/01 05:35:23;;;;;;;;;;;3.50;99.90;;;1.92;64.26;102455.47;2569954;30;138442;-40
2022/03/01 05:37:52;;;;;;;;;;;3.50;99.90;;;1.88;64.73;102440.53;2570145;30;136676;-40
2022/03/01 05:40:25;;;;;;;;;;;3.50;99.90;;;1.88;64.01;102437.84;2569624;30;138454;-40
2022/03/01 05:42:53;;;;;;;;;;;3.60;99.90;;;1.91;64.11;102443.84;2569927;30;136622;-41
2022/03/01 05:45:21;;;;;;;;;;;3.60;99.90;;;1.96;65.35;102443.50;2566432;30;138290;-41
2022/03/01 05:47:49;;;;;;;;;;;3.60;99.90;;;1.94;65.01;102442.75;2570258;30;137106;-40
2022/03/01 05:50:17;;;;;;;;;;;3.60;99.90;;;2.00;63.57;102445.84;2567529;30;138048;-40
2022/03/01 05:52:49;;;;;;;;;;;3.60;99.90;;;1.94;64.26;102448.13;2569674;30;137416;-40
2022/03/01 05:55:16;;;;;;;;;;;3.60;99.90;;;1.90;64.66;102454.72;2568154;30;138523;-40
2022/03/01 05:57:44;;;;;;;;;;;3.60;99.90;;;1.90;64.48;102452.03;2570097;30;137063;-40
2022/03/01 06:00:14;;;;;;;;;;;3.60;99.90;;;1.91;64.69;102459.13;2569333;30;137418;-40
2022/03/01 06:02:44;;;;;;;;;;;3.50;99.90;;;1.90;64.23;102457.44;2569392;30;137958;-40
2022/03/01 06:05:12;;;;;;;;;;;3.60;99.90;;;1.86;64.57;102454.97;2570437;30;138252;-40
2022/03/01 06:07:39;;;;;;;;;;;3.60;99.90;;;1.91;64.37;102453.75;2570379;30;137028;-42
2022/03/01 06:10:08;;;;;;;;;;;3.60;99.90;;;1.93;64.06;102457.19;2570064;30;137065;-40
2022/03/01 06:12:36;;;;;;;;;;;3.60;99.90;;;1.88;64.65;102462.91;2568721;30;137373;-39
2022/03/01 06:15:05;;;;;;;;;;;3.50;99.90;;;1.89;64.37;102440.41;2571606;30;139193;-40
2022/03/01 06:17:32;;;;;;;;;;;3.60;99.90;;;1.89;64.31;102450.31;2568697;30;136897;-40
2022/03/01 06:20:01;;;;;;;;;;;3.50;99.90;;;1.89;64.66;102443.09;2567359;30;138469;-40
2022/03/01 06:22:29;;;;;;;;;;;3.60;99.90;;;1.99;63.90;102451.34;2568509;30;137174;-41
2022/03/01 06:24:57;;;;;;;;;;;3.60;99.90;;;1.92;64.88;102450.09;2569605;30;138404;-40
2022/03/01 06:27:24;;;;;;;;;;;3.60;99.90;;;1.90;64.34;102450.19;2568148;30;137133;-41
2022/03/01 06:29:52;;;;;;;;;;;3.60;99.90;;;1.82;65.25;102445.38;2570552;30;138165;-41
2022/03/01 06:32:19;;;;;;;;;;;3.50;99.90;;;1.93;65.63;102439.19;2568546;30;136810;-40
2022/03/01 06:34:47;;;;;;;;;;;3.50;99.90;;;1.95;64.15;102457.94;2570612;30;138696;-40
2022/03/01 06:37:30;;;;;;;;;;;3.60;99.90;;;1.97;63.90;102451.44;2571143;30;137254;-40
2022/03/01 06:39:57;;;;;;;;;;;3.60;99.90;;;1.98;64.34;102457.69;2568237;30;138540;-40
2022/03/01 06:42:26;;;;;;;;;;;3.60;99.90;;;2.03;64.04;102458.19;2570678;30;136808;-41
2022/03/01 06:44:53;;;;;;;;;;;3.60;99.90;;;1.99;64.00;102468.38;2570237;30;137296;-40
2022/03/01 06:47:21;;;;;;;;;;;3.60;99.90;;;2.05;63.85;102461.63;2569479;30;138089;-38
2022/03/01 06:49:48;;;;;;;;;;;3.70;99.90;;;2.03;63.26;102468.97;2570398;30;138479;-40
2022/03/01 06:52:16;;;;;;;;;;;3.70;99.90;;;2.08;63.07;102458.72;2571019;30;137068;-40
2022/03/01 06:54:45;;;;;;;;;;;3.70;99.90;;;2.17;63.33;102453.63;2571541;30;138869;-40
2022/03/01 06:57:16;;;;;;;;;;;3.80;99.90;;;2.21;62.88;102460.47;2570536;30;137766;-40
2022/03/01 06:59:44;;;;;;;;;;;3.80;99.90;;;2.22;62.58;102465.72;2572225;30;137222;-42
2022/03/01 07:02:11;;;;;;;;;;;3.80;99.90;;;2.21;62.26;102466.72;2569039;30;137104;-41
2022/03/01 07:04:40;;;;;;;;;;;3.80;99.90;;;2.19;62.90;102462.44;2567949;30;138460;-41
2022/03/01 07:07:09;;;;;;;;;;;3.80;99.90;;;2.21;62.35;102457.78;2569627;30;137146;-42
2022/03/01 07:09:36;;;;;;;;;;;3.80;99.90;;;2.24;62.36;102460.25;2568485;30;138189;-42
2022/03/01 07:12:04;;;;;;;;;;;3.90;99.90;;;2.24;62.91;102458.41;2568816;30;136972;-41
2022/03/01 07:14:32;;;;;;;;;;;3.90;99.90;;;2.21;62.71;102447.03;2568886;30;138056;-41
2022/03/01 07:16:59;;;;;;;;;;;3.80;99.90;;;2.30;62.34;102451.69;2567903;30;137173;-42
2022/03/01 07:19:27;;;;;;;;;;;3.90;99.90;;;2.33;61.40;102448.75;2569077;30;138114;-42
2022/03/01 07:21:54;;;;;;;;;;;3.90;99.90;;;2.33;63.28;102458.69;2565171;30;137630;-41
2022/03/01 07:24:22;;;;;;;;;;;3.90;99.90;;;2.35;63.14;102462.13;2568498;30;137214;-42
2022/03/01 07:26:49;;;;;;;;;;;4.00;99.90;;;2.40;62.19;102457.22;2569090;30;137241;-41
2022/03/01 07:29:17;;;;;;;;;;;4.00;99.90;;;2.41;61.67;102459.81;2567318;30;139027;-41
2022/03/01 07:31:44;;;;;;;;;;;4.00;99.90;;;2.43;62.94;102457.88;2567805;30;137070;-41
2022/03/01 07:34:11;;;;;;;;;;;4.00;99.90;;;2.45;61.63;102463.13;2568445;30;137120;-41
2022/03/01 07:36:39;;;;;;;;;;;4.10;99.90;;;2.52;62.18;102471.59;2568256;30;137164;-41
2022/03/01 07:39:07;;;;;;;;;;;4.10;99.90;;;2.41;60.72;102456.25;2567431;30;139040;-41
2022/03/01 07:41:34;;;;;;;;;;;4.20;99.90;;;2.59;61.21;102470.13;2565231;30;138115;-41
2022/03/01 07:44:02;;;;;;;;;;;4.20;99.90;;;2.71;60.21;102477.28;2569175;30;138138;-41
2022/03/01 07:46:29;;;;;;;;;;;4.30;99.90;;;2.73;60.80;102482.53;2565732;30;137063;-41
2022/03/01 07:48:57;;;;;;;;;;;4.30;99.90;;;2.79;60.50;102476.69;2568398;30;138508;-41
2022/03/01 07:51:24;;;;;;;;;;;4.30;99.90;;;2.78;60.77;102471.41;2566862;30;136616;-41
2022/03/01 07:53:52;;;;;;;;;;;4.30;99.90;;;2.82;60.59;102471.03;2568276;30;137204;-41
2022/03/01 07:56:22;;;;;;;;;;;4.40;99.90;;;2.85;61.53;102464.53;2568892;30;136925;-41
2022/03/01 07:58:50;;;;;;;;;;;4.40;99.90;;;2.78;60.81;102466.00;2569116;30;138553;-41
2022/03/01 08:01:19;;;;;;;;;;;4.40;99.90;;;2.83;60.54;102472.75;2569185;30;137254;-42
2022/03/01 08:03:48;;;;;;;;;;;4.40;99.90;;;2.95;60.15;102476.31;2567985;30;138158;-41
2022/03/01 08:06:18;;;;;;;;;;;4.50;99.90;;;2.97;58.85;102479.75;2568692;30;137110;-41
2022/03/01 08:08:45;;;;;;;;;;;4.60;99.90;;;3.04;59.57;102479.25;2566014;30;138601;-41
2022/03/01 08:11:13;;;;;;;;;;;4.60;99.90;;;3.13;60.90;102470.41;2568843;30;136954;-41
2022/03/01 08:13:41;;;;;;;;;;;4.60;99.90;;;3.23;59.92;102471.41;2567942;30;137300;-41
2022/03/01 08:16:09;;;;;;;;;;;4.70;99.90;;;3.34;59.06;102461.59;2569276;30;137252;-41
2022/03/01 08:18:37;;;;;;;;;;;4.90;99.90;;;3.48;57.50;102482.06;2568682;30;139329;-41
2022/03/01 08:21:06;;;;;;;;;;;5.00;99.90;;;3.44;57.91;102458.03;2568914;30;136874;-41
2022/03/01 08:23:34;;;;;;;;;;;5.00;99.90;;;3.68;57.53;102475.00;2568370;30;138242;-41
2022/03/01 08:26:04;;;;;;;;;;;5.20;99.90;;;3.77;58.09;102474.28;2568902;30;137119;-41
2022/03/01 08:28:32;;;;;;;;;;;5.20;99.90;;;3.87;57.04;102467.13;2567960;30;138126;-41
2022/03/01 08:31:00;;;;;;;;;;;5.30;99.90;;;3.88;57.92;102479.63;2568423;30;136650;-41
2022/03/01 08:33:27;;;;;;;;;;;5.40;99.90;;;3.96;56.67;102475.44;2569304;30;138205;-41
2022/03/01 08:35:55;;;;;;;;;;;5.40;99.90;;;4.03;58.26;102474.78;2566770;30;137063;-41
2022/03/01 08:38:25;;;;;;;;;;;5.50;99.90;;;4.14;59.61;102479.28;2568008;30;138299;-41
2022/03/01 08:40:53;;;;;;;;;;;5.60;99.90;;;4.20;57.93;102487.84;2568560;30;136711;-41
2022/03/01 08:43:22;;;;;;;;;;;5.70;99.90;;;4.24;55.52;102484.78;2568618;30;138221;-41
2022/03/01 08:45:50;;;;;;;;;;;5.70;99.90;;;4.25;55.84;102483.78;2569278;30;136854;-41
2022/03/01 08:48:17;;;;;;;;;;;5.70;99.90;;;4.36;57.17;102485.59;2569100;30;138377;-41
2022/03/01 08:50:46;;;;;;;;;;;5.80;99.90;;;4.42;55.50;102487.75;2568529;30;137017;-41
2022/03/01 08:53:19;;;;;;;;;;;5.80;99.90;;;4.52;55.78;102495.09;2567306;30;140284;-41
2022/03/01 08:55:47;;;;;;;;;;;5.90;99.90;;;4.61;54.53;102494.31;2568528;30;136955;-41
2022/03/01 08:58:15;;;;;;;;;;;6.00;99.90;;;4.76;55.63;102497.53;2567208;30;138246;-41
2022/03/01 09:00:43;;;;;;;;;;;6.10;99.90;;;4.82;55.30;102502.38;2568297;30;137123;-41
2022/03/01 09:03:10;;;;;;;;;;;6.20;99.90;;;4.91;56.17;102514.25;2569516;30;138226;-41
2022/03/01 09:05:58;;;;;;;;;;;6.30;99.90;;;4.97;54.49;102513.72;2567879;30;137987;-41
2022/03/01 09:08:29;;;;;;;;;;;6.40;99.90;;;4.96;54.01;102517.41;2569019;30;138286;-41
2022/03/01 09:10:57;;;;;;;;;;;6.40;99.90;;;5.03;54.21;102513.19;2567820;30;137759;-41
2022/03/01 09:13:27;;;;;;;;;;;6.40;99.90;;;5.08;53.63;102501.97;2568495;30;137969;-41
2022/03/01 09:15:55;;;;;;;;;;;6.50;99.90;;;5.14;53.38;102490.59;2568365;30;137841;-41
2022/03/01 09:18:23;;;;;;;;;;;6.60;99.90;;;5.13;52.55;102485.34;2567265;30;138489;-41
2022/03/01 09:20:50;;;;;;;;;;;6.60;99.90;;;5.02;53.24;102475.47;2566083;30;137130;-41
2022/03/01 09:23:18;;;;;;;;;;;6.60;99.90;;;5.03;53.77;102488.81;2569051;30;138127;-42
2022/03/01 09:25:45;;;;;;;;;;;6.50;99.90;;;5.01;54.10;102496.22;2565898;30;137254;-41
2022/03/01 09:28:13;;;;;;;;;;;6.50;99.90;;;4.96;52.23;102487.66;2567855;30;137363;-41
2022/03/01 09:30:40;;;;;;;;;;;6.50;99.30;;;4.97;53.68;102486.66;2568600;30;136832;-41
2022/03/01 09:33:08;;;;;;;;;;;6.50;99.90;;;4.97;53.24;102475.84;2568880;30;137648;-41
2022/03/01 09:35:36;;;;;;;;;;;6.40;99.80;;;5.02;54.48;102487.13;2565208;30;136669;-41
2022/03/01 09:38:03;;;;;;;;;;;6.50;99.90;;;5.14;53.16;102493.28;2568242;30;138366;-41
2022/03/01 09:40:32;;;;;;;;;;;6.60;99.90;;;5.23;53.74;102485.38;2567226;30;136634;-41
2022/03/01 09:43:00;;;;;;;;;;;6.60;99.90;;;5.35;53.19;102484.28;2567830;30;138970;-41
2022/03/01 09:45:28;;;;;;;;;;;6.70;99.90;;;5.44;51.74;102493.41;2566380;30;137044;-42
2022/03/01 09:47:56;;;;;;;;;;;6.80;99.10;;;5.57;52.69;102493.19;2568312;30;136838;-41
2022/03/01 09:50:27;;;;;;;;;;;6.90;99.80;;;5.76;53.08;102490.53;2566768;30;136916;-42
2022/03/01 09:52:56;;;;;;;;;;;7.10;99.90;;;5.88;50.76;102493.97;2568211;30;138340;-41
2022/03/01 09:55:24;;;;;;;;;;;7.20;98.50;;;6.03;51.63;102493.56;2569301;30;137258;-41
2022/03/01 09:57:56;;;;;;;;;;;7.40;98.80;;;6.22;51.32;102491.88;2569029;30;139014;-41
2022/03/01 10:00:24;;;;;;;;;;;7.50;98.70;;;6.42;50.59;102488.16;2567815;30;136743;-42
2022/03/01 10:02:57;;;;;;;;;;;7.70;98.20;;;6.62;51.09;102490.81;2568058;30;137400;-41
2022/03/01 10:05:39;;;;;;;;;;;7.90;98.30;;;6.76;51.64;102494.94;2568011;30;136738;-41
2022/03/01 10:08:12;;;;;;;;;;;8.00;98.70;;;6.79;49.89;102500.09;2567999;30;136777;-41
2022/03/01 10:10:47;;;;;;;;;;;8.10;97.80;;;6.83;49.31;102511.50;2567557;30;136792;-41
2022/03/01 10:13:27;;;;;;;;;;;8.20;97.10;;;6.81;49.68;102508.94;2568677;30;138262;-41
2022/03/01 10:16:17;;;;;;;;;;;8.20;97.20;;;6.87;49.18;102508.34;2568315;30;136964;-41
2022/03/01 10:18:50;;;;;;;;;;;8.20;96.40;;;6.88;47.34;102501.06;2567984;30;139064;-42
2022/03/01 10:21:19;;;;;;;;;;;8.30;95.40;;;6.87;48.66;102502.94;2569103;30;136699;-41
2022/03/01 10:23:51;;;;;;;;;;;8.20;96.00;;;6.89;47.84;102506.34;2567659;30;138296;-41
2022/03/01 10:26:22;;;;;;;;;;;8.30;95.70;;;6.90;49.08;102499.91;2568914;30;137306;-41
2022/03/01 10:28:52;;;;;;;;;;;8.30;96.30;;;6.87;48.02;102508.34;2569120;30;136822;-41
2022/03/01 10:31:25;;;;;;;;;;;8.30;95.50;;;6.89;49.37;102510.91;2567849;30;137309;-41
2022/03/01 10:33:54;;;;;;;;;;;8.30;96.00;;;7.01;49.32;102515.16;2567708;30;138218;-42
2022/03/01 10:36:27;;;;;;;;;;;8.30;96.30;;;7.16;48.72;102499.25;2566789;30;137146;-41
2022/03/01 10:38:59;;;;;;;;;;;8.40;96.20;;;7.29;47.94;102507.06;2568621;30;137451;-41
2022/03/01 10:41:29;;;;;;;;;;;8.50;95.90;;;7.37;48.03;102509.03;2566041;30;137938;-41
2022/03/01 10:43:59;;;;;;;;;;;8.60;95.40;;;7.48;48.67;102518.84;2565591;30;138370;-41
2022/03/01 10:46:28;;;;;;;;;;;8.70;96.00;;;7.60;47.55;102520.34;2567697;30;137424;-41
2022/03/01 10:49:18;;;;;;;;;;;8.80;95.30;;;7.72;46.06;102523.72;2567663;30;138378;-41
2022/03/01 10:51:54;;;;;;;;;;;9.00;94.10;;;7.67;46.65;102506.16;2567688;30;136917;-41
2022/03/01 10:54:39;;;;;;;;;;;9.00;94.20;;;7.81;47.86;102518.38;2567360;30;138232;-41
2022/03/01 10:57:19;;;;;;;;;;;9.10;95.00;;;7.88;48.12;102517.59;2566011;30;137050;-41
2022/03/01 10:59:48;;;;;;;;;;;9.20;95.30;;;7.77;44.67;102515.13;2567769;30;137296;-41
2022/03/01 11:02:17;;;;;;;;;;;9.20;92.70;;;7.73;45.64;102517.28;2568268;30;137085;-41
2022/03/01 11:04:48;;;;;;;;;;;9.10;93.30;;;7.74;45.85;102512.72;2568879;30;137804;-41
2022/03/01 11:07:18;;;;;;;;;;;9.10;93.20;;;7.73;44.92;102517.28;2566755;30;136674;-41
2022/03/01 11:09:50;;;;;;;;;;;9.10;92.60;;;7.70;46.65;102503.16;2568462;30;138493;-41
2022/03/01 11:12:21;;;;;;;;;;;9.00;93.60;;;7.72;45.19;102496.53;2566676;30;138064;-41
2022/03/01 11:15:15;;;;;;;;;;;9.00;92.70;;;7.83;46.75;102503.63;2567490;30;138188;-42
2022/03/01 11:18:13;;;;;;;;;;;9.10;94.00;;;8.03;45.36;102500.78;2568532;30;136892;-41
2022/03/01 11:20:46;;;;;;;;;;;9.20;93.40;;;8.35;43.99;102496.66;2566549;30;138898;-41
2022/03/01 11:23:19;;;;;;;;;;;9.50;92.40;;;8.55;44.94;102491.06;2569119;30;136988;-41
2022/03/01 11:25:47;;;;;;;;;;;9.70;92.70;;;8.64;44.66;102484.66;2568614;30;138326;-41